Reese Air Force Base, Texas
Current Conditions -  °F | °C
As of 8:53 PM on Sunday 21 Dec 2014 (Local Time) from KLBB Reporting Station
Scattered Clouds Scattered Clouds  
Wind Chill: 54°   Ceiling: Unl
Heat Index: 54°   Visibility: 10mi
Dew Point: 27°   Wind: 13mph
Humidity: 35%   Direction: 250°WSW
Pressure: 29.62"   Gusts: NA
Location:  33.5936°N, 102.0291°W
Report Text: KLBB 220253Z 25011KT 10SM SCT250 12/M03 A2962 RMK AO2 SLP014 T01221028 58003
Loading
Personal Weather Stations






























Interactive Weather Map New forecast layout! Learn more

10-Day Weather Forecast

Advertisements
Track Severe Weather on mobile